Aeroporto :
LOGIN :

Iscrizione | Disclaimer

   EN    FR    IT 

 










Sommario :    VFR   VFR Marginale   IFR   IFR Intensivo   IFR Molto Intensivo
Visibilità : 
Base nubi : 
>= 8 km
>= 3000ft
5 / 8 km
1000 / 3000 ft
1500m / 5 km
500 / 1000 ft
800 / 1500m
200 / 500 ft
< 800m
< 200 ft
Simboli :   Temporali  Nebbia  Neve Forte  Precipitazioni Forti  Vento > 20 kt
SIGMETs :   Varie  Temporali  Ghiacco  Turbolenza  Onda orograficha  Ceneri Vulcaniche







- Altitudine del aeroporto : 856 ft
- Codice IATA : VGO


LEVX - Vigo Peinador

ULTIMO METAR :
  • 261830Z 09009KT 060V120 CAVOK 22/M08 Q1016 NOSIG

METARs OBSOLETI :
  • 261800Z 11009KT 070V160 CAVOK 23/M06 Q1016 NOSIG
  • 261730Z 10010KT 060V160 CAVOK 23/M03 Q1016 NOSIG
  • 261700Z 11009KT 050V160 CAVOK 23/M04 Q1015 NOSIG
  • 261630Z 09008KT 060V120 CAVOK 24/M01 Q1016 NOSIG
  • 261600Z 10009KT 050V160 CAVOK 24/M03 Q1016 NOSIG

TAF TAF LEVX
Valido dal 26 a 18 ore il 27 a 18 ore UTC


261700Z 2618/2718 09007KT CAVOK TX23/2715Z TN10/2707Z
PROB40
TEMPO 2713/2718 28010KT
Nessun NOTAM noto per questo aeroporto.
2 SIGMETs conosciuti per la FIR Madrid (LECM) :
 
Turbolenza severa
LECM SIGMET 6 VALID 261600/262000 LEVA
LECM MADRID FIR SEV TURB FCST S OF LINE N3700 W00721 - N3648 W00203 SFC/FL050 STNR NC=
Turbolenza severa
LECM SIGMET 5 VALID 261600/262000 LEVA
LECM MADRID FIR SEV TURB FCST WI N3822 W00253 - N3733 W00332 - N3646 W00357 - N3655 W00153 - N3824 W00204 - N3822 W00253 SFC/FL120 STNR NC=



MetMap, La meteo Aeronautica in un colpo d'occhio ! - Copyright ORBIFLY Dicembre 2007 - Disclaimer

ORBIFLY MET'MAP TEAM :

Programmazione e sviluppo : Alexandra Zaïnal
Concezione e sviluppo : Baudouin d'Aumeries
Co-Programmazione e sviluppo : Marc-Olivier Méhu
Supporto tecnico e logistico : Manuel Goepfert
Aiuto per la traduzione : Arnaldo La Scala

Contatto : metmap@orbifly.com




FONTI E CREDITI :

   NOAA